Time;durP1;ratioP1;P1;durP2;ratioP2;P2;SDS_P1;SDS_P2;PMS_P1;PMS_P2;Temp;Humidity;BMP_temperature;BMP_pressure;BME280_temperature;BME280_humidity;BME280_pressure;Samples;Min_cycle;Max_cycle;Signal;HPM_P1;HPM_P2
2022/10/07 00:00:50;;;;;;;23.70;15.10;;;;;;;9.16;75.85;102147.05;1684491;84;25879;-84
2022/10/07 00:03:21;;;;;;;23.75;14.90;;;;;;;9.18;76.00;102152.61;1682252;84;25789;-84
2022/10/07 00:06:16;;;;;;;29.20;15.72;;;;;;;9.19;75.92;102154.31;1642074;85;25787;-84
2022/10/07 00:08:47;;;;;;;25.30;16.65;;;;;;;9.20;75.83;102151.98;1654450;85;25999;-83
2022/10/07 00:11:21;;;;;;;29.50;18.50;;;;;;;9.20;76.02;102147.97;1685984;84;27479;-84
2022/10/07 00:13:52;;;;;;;25.57;15.65;;;;;;;9.21;76.03;102151.01;1686295;84;25352;-84
2022/10/07 00:16:23;;;;;;;22.95;16.07;;;;;;;9.20;76.01;102149.30;1680426;84;26464;-84
2022/10/07 00:18:51;;;;;;;31.15;16.60;;;;;;;9.21;76.20;102149.67;1652561;86;26382;-84
2022/10/07 00:21:19;;;;;;;27.55;16.75;;;;;;;9.23;76.03;102151.71;1666669;84;25804;-83
2022/10/07 00:23:47;;;;;;;23.40;15.40;;;;;;;9.20;75.50;102151.13;1632775;85;27514;-83
2022/10/07 00:26:18;;;;;;;30.02;16.25;;;;;;;9.13;75.20;102140.14;1682066;84;25325;-84
2022/10/07 00:28:45;;;;;;;;;;;;;;;9.04;74.90;102142.34;1687725;84;25942;-83
2022/10/07 00:31:15;;;;;;;29.25;16.05;;;;;;;8.97;74.62;102139.86;1677191;84;26494;-83
2022/10/07 00:33:43;;;;;;;22.32;14.53;;;;;;;8.87;74.58;102141.69;1682688;84;25914;-84
2022/10/07 00:36:14;;;;;;;25.45;15.53;;;;;;;8.82;74.55;102143.06;1683175;84;28213;-84
2022/10/07 00:38:40;;;;;;;22.87;15.58;;;;;;;8.78;74.51;102142.51;1681002;84;25788;-83
2022/10/07 00:41:12;;;;;;;26.68;15.72;;;;;;;8.73;74.31;102142.06;1683556;84;25318;-83
2022/10/07 00:43:38;;;;;;;24.85;16.07;;;;;;;8.66;74.38;102143.58;1687642;84;25873;-83
2022/10/07 00:46:14;;;;;;;25.23;15.30;;;;;;;8.62;74.43;102142.69;1675743;84;26258;-84
2022/10/07 00:48:42;;;;;;;21.73;15.13;;;;;;;8.58;74.37;102142.09;1678395;84;27699;-83
2022/10/07 00:51:09;;;;;;;26.55;15.93;;;;;;;8.54;74.34;102137.53;1693149;84;25848;-83
2022/10/07 00:53:39;;;;;;;26.90;16.65;;;;;;;8.51;74.38;102140.97;1689443;84;25791;-83
2022/10/07 00:56:08;;;;;;;27.22;16.57;;;;;;;8.47;74.37;102144.38;1658627;84;26491;-83
2022/10/07 00:58:37;;;;;;;29.63;17.62;;;;;;;8.42;74.40;102146.63;1691565;84;25912;-84
2022/10/07 01:01:06;;;;;;;22.45;15.45;;;;;;;8.36;74.50;102142.33;1658905;84;27472;-84
2022/10/07 01:03:34;;;;;;;21.80;13.70;;;;;;;8.32;74.76;102141.73;1680036;84;25829;-83
2022/10/07 01:06:02;;;;;;;23.87;14.93;;;;;;;8.31;74.89;102145.88;1696195;84;25874;-84
2022/10/07 01:08:29;;;;;;;23.67;15.35;;;;;;;8.27;75.08;102141.79;1684672;84;25851;-83
2022/10/07 01:11:27;;;;;;;20.48;14.87;;;;;;;8.25;75.40;102135.26;1683846;84;25882;-82
2022/10/07 01:14:23;;;;;;;23.38;13.95;;;;;;;8.25;75.83;102137.92;1688750;84;27474;-83
2022/10/07 01:17:24;;;;;;;21.97;13.70;;;;;;;8.22;76.23;102134.14;1672863;84;26996;-84
2022/10/07 01:20:14;;;;;;;22.55;14.15;;;;;;;8.21;76.60;102131.63;1686254;84;26190;-84
2022/10/07 01:23:13;;;;;;;21.10;13.80;;;;;;;8.21;76.79;102130.28;1672314;84;26569;-84
2022/10/07 01:26:06;;;;;;;22.95;13.28;;;;;;;8.21;76.93;102128.44;1673407;84;25705;-82
2022/10/07 01:28:49;;;;;;;21.95;13.90;;;;;;;8.23;77.14;102135.00;1682610;84;27161;-82
2022/10/07 01:31:20;;;;;;;18.15;12.78;;;;;;;8.26;76.99;102132.07;1682920;84;25792;-83
2022/10/07 01:33:49;;;;;;;20.55;13.10;;;;;;;8.25;76.69;102129.92;1685856;84;26442;-83
2022/10/07 01:36:20;;;;;;;18.42;12.25;;;;;;;8.25;76.69;102129.03;1676666;84;25929;-82
2022/10/07 01:38:50;;;;;;;;;;;;;;;8.25;76.71;102127.70;1677426;84;25816;-83
2022/10/07 01:41:20;;;;;;;24.60;12.75;;;;;;;8.25;76.69;102126.36;1678339;84;27468;-82
2022/10/07 01:43:51;;;;;;;20.05;12.40;;;;;;;8.21;76.50;102124.44;1661409;85;26034;-83
2022/10/07 01:46:23;;;;;;;17.73;12.85;;;;;;;8.20;76.34;102129.43;1626627;85;25571;-83
2022/10/07 01:48:50;;;;;;;;;;;;;;;8.18;76.30;102128.72;1647657;85;25819;-83
2022/10/07 01:51:21;;;;;;;19.52;11.85;;;;;;;8.17;76.34;102127.53;1652796;85;25838;-83
2022/10/07 01:54:26;;;;;;;20.80;12.63;;;;;;;8.13;76.34;102126.94;1678605;84;27477;-83
2022/10/07 01:57:13;;;;;;;16.05;10.88;;;;;;;8.13;76.46;102126.08;1666508;84;25855;-82
2022/10/07 02:00:04;;;;;;;17.45;11.40;;;;;;;8.11;76.53;102132.05;1674504;84;26384;-83
2022/10/07 02:02:59;;;;;;;20.37;12.03;;;;;;;8.10;76.76;102129.03;1679811;84;25996;-83
2022/10/07 02:05:55;;;;;;;21.77;12.73;;;;;;;8.09;76.88;102137.52;1679869;84;25925;-83
2022/10/07 02:08:34;;;;;;;21.40;13.38;;;;;;;;;;1668525;84;27483;-83
2022/10/07 02:11:14;;;;;;;19.82;13.20;;;;;;;8.04;77.27;102136.25;1693339;84;25344;-84
2022/10/07 02:14:07;;;;;;;22.13;13.10;;;;;;;8.01;77.57;102129.34;1682980;84;26392;-83
2022/10/07 02:16:47;;;;;;;18.92;12.80;;;;;;;8.00;77.73;102122.30;1670897;84;26158;-83
2022/10/07 02:19:20;;;;;;;20.12;13.00;;;;;;;8.00;77.78;102130.31;1686390;84;25894;-82
2022/10/07 02:21:50;;;;;;;23.57;14.33;;;;;;;7.99;77.39;102134.45;1687296;84;27482;-82
2022/10/07 02:24:21;;;;;;;23.22;15.53;;;;;;;7.97;76.97;102127.08;1679259;84;25998;-83
2022/10/07 02:26:50;;;;;;;;;;;;;;;7.95;76.65;102124.55;1690262;84;26646;-82
2022/10/07 02:29:20;;;;;;;18.17;12.28;;;;;;;7.92;76.88;102122.61;1681116;84;25826;-83
2022/10/07 02:31:50;;;;;;;17.82;12.65;;;;;;;7.88;76.92;102121.19;1693234;84;25950;-83
2022/10/07 02:34:22;;;;;;;18.05;12.20;;;;;;;7.86;77.21;102119.14;1683160;84;27460;-83
2022/10/07 02:36:57;;;;;;;15.98;11.33;;;;;;;7.85;77.32;102122.30;1626334;86;25858;-83
2022/10/07 02:39:27;;;;;;;19.75;12.93;;;;;;;7.84;77.30;102129.95;1684355;84;25831;-83
2022/10/07 02:42:14;;;;;;;19.37;11.53;;;;;;;7.82;77.57;102127.06;1680968;84;26552;-83
2022/10/07 02:45:22;;;;;;;16.45;11.03;;;;;;;7.82;77.76;102123.91;1681352;84;25874;-83
2022/10/07 02:48:01;;;;;;;17.67;11.88;;;;;;;7.81;77.77;102122.20;1670587;84;27433;-83
2022/10/07 02:50:38;;;;;;;19.37;12.75;;;;;;;7.79;77.67;102126.34;1674744;84;25993;-83
2022/10/07 02:53:06;;;;;;;17.45;11.15;;;;;;;7.79;77.59;102122.83;1649465;85;26372;-83
2022/10/07 02:55:34;;;;;;;15.50;10.93;;;;;;;7.79;77.41;102121.02;1640335;85;26484;-83
2022/10/07 02:58:05;;;;;;;17.02;11.10;;;;;;;7.77;77.20;102118.97;1661307;85;26538;-84
2022/10/07 03:00:36;;;;;;;17.20;11.40;;;;;;;7.74;76.82;102115.73;1683900;84;27445;-83
2022/10/07 03:03:04;;;;;;;17.90;11.40;;;;;;;7.72;76.73;102118.98;1685974;84;25648;-83
2022/10/07 03:05:38;;;;;;;14.83;10.85;;;;;;;7.70;76.62;102124.46;1689009;84;25858;-83
2022/10/07 03:08:08;;;;;;;15.80;10.65;;;;;;;7.68;76.36;102124.23;1689031;84;26497;-83
2022/10/07 03:10:37;;;;;;;17.48;10.93;;;;;;;7.64;76.45;102123.66;1669832;84;25859;-83
2022/10/07 03:13:04;;;;;;;15.78;10.53;;;;;;;7.62;76.59;102122.95;1678385;84;28294;-83
2022/10/07 03:15:35;;;;;;;21.75;11.15;;;;;;;7.62;76.82;102118.95;1668941;84;25944;-83
2022/10/07 03:18:01;;;;;;;19.85;11.50;;;;;;;7.61;76.95;102121.75;1654783;85;25911;-84
2022/10/07 03:20:31;;;;;;;19.65;11.85;;;;;;;7.61;77.03;102121.23;1669907;84;25848;-83
2022/10/07 03:22:58;;;;;;;18.77;11.45;;;;;;;7.61;76.90;102113.75;1674458;84;25829;-83
2022/10/07 03:25:26;;;;;;;21.05;11.88;;;;;;;7.59;76.30;102125.03;1670285;84;27451;-83
2022/10/07 03:27:53;;;;;;;20.02;12.45;;;;;;;7.53;76.12;102125.05;1674004;84;26481;-83
2022/10/07 03:30:21;;;;;;;19.87;12.65;;;;;;;7.47;75.95;102118.91;1675078;84;26370;-83
2022/10/07 03:32:49;;;;;;;19.77;12.55;;;;;;;7.40;75.76;102117.73;1664084;85;26647;-83
2022/10/07 03:35:16;;;;;;;21.27;11.93;;;;;;;7.34;75.74;102117.40;1678933;84;25872;-84
2022/10/07 03:37:42;;;;;;;17.15;12.40;;;;;;;7.28;75.67;102117.92;1664745;84;27473;-83
2022/10/07 03:40:09;;;;;;;18.07;12.60;;;;;;;7.21;75.69;102114.92;1658754;85;26478;-82
2022/10/07 03:42:36;;;;;;;16.10;12.60;;;;;;;7.17;75.92;102112.16;1668274;84;25876;-83
2022/10/07 03:45:05;;;;;;;19.92;11.68;;;;;;;7.17;75.95;102112.63;1683329;84;26605;-83
2022/10/07 03:47:31;;;;;;;18.45;11.63;;;;;;;7.16;76.06;102112.30;1690744;84;25915;-83
2022/10/07 03:49:58;;;;;;;23.62;12.45;;;;;;;7.14;76.13;102104.44;1659697;85;27483;-83
2022/10/07 03:52:24;;;;;;;19.45;11.63;;;;;;;7.12;76.43;102107.69;1670997;84;26575;-82
2022/10/07 03:54:54;;;;;;;16.17;10.40;;;;;;;7.11;76.94;102106.01;1655379;84;25782;-82
2022/10/07 04:00:06;;;;;;;16.37;10.80;;;;;;;7.12;77.49;102098.87;1643159;86;25890;-83
2022/10/07 04:02:34;;;;;;;19.30;11.38;;;;;;;7.11;77.61;102101.16;1680130;84;27593;-82
2022/10/07 04:05:01;;;;;;;19.30;11.83;;;;;;;7.10;77.82;102101.64;1653037;85;26379;-82
2022/10/07 04:07:27;;;;;;;21.55;12.03;;;;;;;7.12;77.90;102104.20;1673191;84;25341;-83
2022/10/07 04:09:54;;;;;;;17.48;11.43;;;;;;;7.11;77.96;102102.02;1686811;84;25879;-82
2022/10/07 04:12:20;;;;;;;18.95;11.25;;;;;;;7.08;77.54;102099.59;1687492;84;25328;-82
2022/10/07 04:14:46;;;;;;;17.10;11.50;;;;;;;7.07;76.91;102098.40;1677437;84;28449;-82
2022/10/07 04:17:13;;;;;;;17.65;11.33;;;;;;;6.98;76.53;102092.87;1676201;84;26710;-82
2022/10/07 04:19:39;;;;;;;16.42;11.88;;;;;;;6.92;76.27;102100.52;1671808;84;25895;-82
2022/10/07 04:22:06;;;;;;;20.97;11.93;;;;;;;6.86;76.22;102093.04;1669905;85;26665;-82
2022/10/07 04:24:32;;;;;;;15.98;11.45;;;;;;;6.82;76.18;102087.61;1665132;84;25835;-82
2022/10/07 04:26:59;;;;;;;20.65;11.60;;;;;;;6.78;76.07;102088.80;1679264;83;27467;-82
2022/10/07 04:29:26;;;;;;;15.55;11.48;;;;;;;6.75;76.00;102093.07;1697207;83;25866;-82
2022/10/07 04:31:57;;;;;;;14.50;10.55;;;;;;;6.72;75.92;102087.50;1656503;85;25920;-82
2022/10/07 04:34:21;;;;;;;15.55;11.00;;;;;;;6.71;75.86;102087.64;1659663;84;25838;-83
2022/10/07 04:36:48;;;;;;;15.15;11.40;;;;;;;6.68;75.89;102091.88;1642213;85;25975;-83
2022/10/07 04:39:16;;;;;;;18.82;12.33;;;;;;;6.64;75.91;102088.63;1686257;84;28237;-83
2022/10/07 04:41:47;;;;;;;23.42;13.15;;;;;;;6.63;76.17;102084.25;1691035;84;25833;-82
2022/10/07 04:44:15;;;;;;;21.37;13.28;;;;;;;6.64;76.63;102087.30;1684278;84;25818;-83
2022/10/07 04:46:50;;;;;;;20.25;14.23;;;;;;;6.66;77.06;102085.83;1681813;84;25772;-82
2022/10/07 04:49:17;;;;;;;19.52;12.75;;;;;;;6.67;76.88;102086.20;1650644;85;25760;-82
2022/10/07 04:51:43;;;;;;;19.23;11.55;;;;;;;6.68;77.12;102083.88;1641424;85;27482;-82
2022/10/07 04:54:10;;;;;;;18.85;13.18;;;;;;;6.70;77.45;102077.47;1662279;86;26547;-82
2022/10/07 04:56:38;;;;;;;20.25;12.95;;;;;;;6.72;77.48;102079.99;1685346;83;25851;-82
2022/10/07 04:59:06;;;;;;;22.93;12.80;;;;;;;6.72;77.31;102070.67;1682294;83;25831;-83
2022/10/07 05:01:34;;;;;;;25.60;13.60;;;;;;;6.74;77.44;102075.39;1678794;84;26250;-82
2022/10/07 05:04:01;;;;;;;21.75;12.93;;;;;;;6.75;77.60;102079.75;1690146;84;27417;-83
2022/10/07 05:06:28;;;;;;;22.73;14.03;;;;;;;6.75;77.63;102076.61;1691188;83;25913;-83
2022/10/07 05:08:56;;;;;;;24.92;14.58;;;;;;;6.77;77.48;102077.81;1686283;84;26078;-82
2022/10/07 05:11:24;;;;;;;21.37;13.50;;;;;;;6.77;77.48;102073.81;1655545;85;25787;-82
2022/10/07 05:13:52;;;;;;;26.33;16.70;;;;;;;6.77;77.43;102075.15;1663798;84;25879;-82
2022/10/07 05:16:19;;;;;;;28.25;16.95;;;;;;;6.76;77.40;102077.44;1685954;84;27474;-82
2022/10/07 05:18:46;;;;;;;29.48;17.67;;;;;;;6.76;77.45;102077.44;1651136;85;25957;-82
2022/10/07 05:21:13;;;;;;;25.48;14.33;;;;;;;6.75;77.52;102074.43;1690115;84;25883;-82
2022/10/07 05:23:41;;;;;;;25.15;13.60;;;;;;;6.76;77.76;102070.30;1656220;85;25950;-82
2022/10/07 05:26:12;;;;;;;21.70;13.55;;;;;;;6.78;78.08;102071.02;1649575;85;26019;-83
2022/10/07 05:28:40;;;;;;;20.17;12.23;;;;;;;6.80;78.62;102064.25;1675463;84;28359;-82
2022/10/07 05:31:11;;;;;;;20.05;11.97;;;;;;;6.82;78.93;102060.47;1683355;84;25984;-83
2022/10/07 05:33:39;;;;;;;19.62;11.85;;;;;;;6.83;78.95;102064.84;1689419;84;25891;-82
2022/10/07 05:36:09;;;;;;;21.80;12.75;;;;;;;6.84;79.41;102063.02;1684628;84;25792;-83
2022/10/07 05:38:36;;;;;;;25.88;13.25;;;;;;;6.85;79.69;102060.70;1692056;84;25827;-83
2022/10/07 05:41:07;;;;;;;22.40;11.97;;;;;;;6.87;80.10;102060.94;1673986;84;27471;-83
2022/10/07 05:43:40;;;;;;;20.40;11.15;;;;;;;6.92;80.32;102063.23;1661520;84;25405;-83
2022/10/07 05:46:10;;;;;;;20.57;11.63;;;;;;;6.95;80.35;102066.95;1684890;84;26072;-82
2022/10/07 05:48:39;;;;;;;19.73;12.23;;;;;;;6.98;80.28;102074.70;1685442;84;25793;-82
2022/10/07 05:51:07;;;;;;;20.40;12.50;;;;;;;7.04;81.04;102071.52;1679490;84;25939;-82
2022/10/07 05:53:34;;;;;;;20.32;12.53;;;;;;;7.08;80.87;102067.62;1680552;84;27527;-82
2022/10/07 05:56:10;;;;;;;21.82;12.95;;;;;;;7.12;80.89;102068.23;1673893;84;25918;-82
2022/10/07 05:58:37;;;;;;;26.50;13.75;;;;;;;7.15;80.95;102070.14;1684716;83;25874;-82
2022/10/07 06:01:07;;;;;;;22.90;12.37;;;;;;;7.20;81.13;102071.94;1670302;84;26550;-83
2022/10/07 06:03:33;;;;;;;22.93;12.78;;;;;;;7.24;81.37;102078.70;1656431;85;25839;-83
2022/10/07 06:06:00;;;;;;;19.10;12.25;;;;;;;7.28;81.47;102076.12;1644011;85;27657;-82
2022/10/07 06:08:28;;;;;;;19.23;12.28;;;;;;;7.35;81.58;102080.45;1675561;84;25855;-82
2022/10/07 06:13:51;;;;;;;19.75;12.30;;;;;;;7.45;81.94;102079.54;1680811;84;25822;-83
2022/10/07 06:16:19;;;;;;;24.47;13.40;;;;;;;7.53;82.21;102084.20;1663499;84;25894;-82
2022/10/07 06:18:49;;;;;;;18.67;12.58;;;;;;;7.56;82.30;102080.81;1681288;84;27470;-82
2022/10/07 06:21:15;;;;;;;22.48;13.68;;;;;;;7.62;82.58;102082.95;1695908;84;26337;-82
2022/10/07 06:23:42;;;;;;;20.72;13.58;;;;;;;7.69;83.15;102087.27;1697495;83;26170;-82
2022/10/07 06:26:10;;;;;;;16.57;12.30;;;;;;;7.77;83.73;102095.44;1685664;83;25846;-83
2022/10/07 06:28:39;;;;;;;20.48;12.68;;;;;;;7.85;83.86;102091.62;1651916;85;25905;-83
2022/10/07 06:31:13;;;;;;;22.05;13.55;;;;;;;7.90;83.98;102088.08;1637235;85;27495;-82
2022/10/07 06:33:40;;;;;;;23.95;14.10;;;;;;;7.98;84.36;102092.24;1628538;87;26109;-83
2022/10/07 06:36:12;;;;;;;24.60;13.78;;;;;;;8.07;84.66;102093.27;1662691;84;26270;-83
2022/10/07 06:38:45;;;;;;;22.73;14.18;;;;;;;8.14;84.74;102091.76;1639998;85;25871;-83
2022/10/07 06:41:11;;;;;;;22.90;13.48;;;;;;;8.22;84.95;102087.43;1684126;84;25870;-83
2022/10/07 06:43:38;;;;;;;23.05;12.88;;;;;;;8.31;85.18;102088.48;1683446;84;27459;-83
2022/10/07 06:46:09;;;;;;;20.77;13.28;;;;;;;8.38;85.56;102090.97;1685626;84;25844;-83
2022/10/07 06:48:40;;;;;;;20.95;13.72;;;;;;;8.46;85.75;102088.45;1638695;86;25842;-82
2022/10/07 06:51:19;;;;;;;18.95;13.78;;;;;;;8.54;85.75;102089.45;1630114;86;25820;-84
2022/10/07 06:53:53;;;;;;;19.52;12.85;;;;;;;8.64;86.04;102093.98;1628515;85;26049;-83
2022/10/07 06:56:20;;;;;;;23.92;13.20;;;;;;;8.71;86.26;102085.26;1691582;84;27490;-85
2022/10/07 06:58:48;;;;;;;22.13;13.18;;;;;;;8.81;86.58;102094.64;1662529;84;25905;-84
2022/10/07 07:01:16;;;;;;;17.77;11.90;;;;;;;8.88;86.86;102088.58;1664685;84;25823;-84
2022/10/07 07:03:43;;;;;;;20.02;12.50;;;;;;;8.97;87.14;102091.76;1631080;85;26200;-82
2022/10/07 07:06:13;;;;;;;22.15;12.03;;;;;;;9.07;87.19;102090.41;1692761;84;25776;-83
2022/10/07 07:08:40;;;;;;;23.40;12.50;;;;;;;9.15;87.34;102089.23;1635851;86;28322;-83
2022/10/07 07:13:58;;;;;;;17.92;10.75;;;;;;;9.34;87.72;102092.71;1658518;84;25872;-84
2022/10/07 07:16:25;;;;;;;19.20;11.03;;;;;;;9.45;87.67;102089.55;1677706;84;26016;-83
2022/10/07 07:18:55;;;;;;;20.95;10.95;;;;;;;9.55;87.75;102094.38;1690684;84;26264;-83
2022/10/07 07:21:22;;;;;;;19.10;10.58;;;;;;;9.64;87.70;102093.04;1684233;84;27477;-84
2022/10/07 07:23:52;;;;;;;20.95;11.18;;;;;;;9.74;87.72;102089.84;1653005;86;25816;-83
2022/10/07 07:26:19;;;;;;;17.75;10.35;;;;;;;9.85;87.95;102084.80;1678088;84;25850;-83
2022/10/07 07:29:03;;;;;;;25.27;11.48;;;;;;;9.95;87.96;102085.60;1644182;84;25814;-82
2022/10/07 07:31:34;;;;;;;19.15;10.58;;;;;;;10.08;88.18;102087.45;1681684;84;26137;-82
2022/10/07 07:34:06;;;;;;;22.62;10.23;;;;;;;10.19;88.04;102087.80;1694059;83;27458;-82
2022/10/07 07:36:35;;;;;;;14.25;8.93;;;;;;;10.29;88.17;102078.72;1686760;84;26695;-83
2022/10/07 07:39:07;;;;;;;17.80;8.88;;;;;;;10.42;88.20;102085.91;1683544;83;26465;-83
2022/10/07 07:41:39;;;;;;;17.07;9.08;;;;;;;10.54;88.14;102073.16;1683622;84;26114;-83
2022/10/07 07:44:10;;;;;;;20.52;9.70;;;;;;;10.65;87.85;102075.60;1675270;84;25845;-83
2022/10/07 07:46:42;;;;;;;22.25;9.68;;;;;;;10.76;87.91;102073.56;1660210;85;27490;-84
2022/10/07 07:49:11;;;;;;;17.67;10.43;;;;;;;10.88;87.85;102078.22;1626209;86;25986;-84
2022/10/07 07:51:44;;;;;;;16.52;9.80;;;;;;;10.99;87.64;102072.59;1689029;84;25791;-84
2022/10/07 07:54:11;;;;;;;15.93;9.65;;;;;;;11.09;87.68;102074.72;1679864;84;27442;-84
2022/10/07 07:56:39;;;;;;;18.20;8.70;;;;;;;11.19;87.44;102076.81;1642532;85;26222;-83
2022/10/07 07:59:07;;;;;;;15.18;7.67;;;;;;;11.32;87.64;102075.06;1602686;88;27061;-84
2022/10/07 08:01:34;;;;;;;15.38;8.40;;;;;;;11.41;87.34;102072.80;1691636;83;26121;-85
2022/10/07 08:04:03;;;;;;;16.70;8.50;;;;;;;11.51;87.19;102072.19;1685587;84;25332;-85
2022/10/07 08:06:31;;;;;;;15.32;7.80;;;;;;;11.61;87.16;102074.30;1696774;83;25839;-84
2022/10/07 08:08:58;;;;;;;12.95;7.55;;;;;;;11.73;87.01;102066.34;1686235;83;25288;-84
2022/10/07 08:11:27;;;;;;;13.32;7.37;;;;;;;11.84;86.87;102062.05;1687569;83;27537;-84
2022/10/07 08:13:56;;;;;;;14.13;6.87;;;;;;;11.95;87.00;102068.50;1644292;85;26632;-84
2022/10/07 08:16:27;;;;;;;15.05;7.08;;;;;;;12.08;86.63;102060.81;1640933;86;25862;-84
2022/10/07 08:18:57;;;;;;;7.40;5.55;;;;;;;12.18;86.22;102057.52;1684903;84;26488;-84
2022/10/07 08:21:26;;;;;;;12.53;5.97;;;;;;;12.27;85.98;102060.55;1634647;85;25740;-83
2022/10/07 08:23:57;;;;;;;12.65;6.33;;;;;;;12.38;85.76;102065.64;1644484;86;27465;-84
2022/10/07 08:26:27;;;;;;;11.70;5.55;;;;;;;12.50;85.90;102059.97;1688470;83;25760;-83
2022/10/07 08:28:56;;;;;;;10.75;6.55;;;;;;;12.59;85.37;102054.46;1685559;84;25918;-83
2022/10/07 08:31:26;;;;;;;12.30;6.45;;;;;;;12.69;85.36;102048.92;1636629;86;26762;-83
2022/10/07 08:33:55;;;;;;;12.25;5.20;;;;;;;12.80;85.10;102052.64;1687635;83;25822;-86
2022/10/07 08:36:24;;;;;;;8.83;5.12;;;;;;;12.89;84.76;102038.20;1682691;84;27556;-80
2022/10/07 08:38:51;;;;;;;8.43;4.75;;;;;;;13.02;84.63;102042.59;1683391;84;25764;-83
2022/10/07 08:41:47;;;;;;;11.90;4.15;;;;;;;13.13;84.40;102040.42;1656098;85;25781;-83
2022/10/07 08:44:36;;;;;;;8.30;3.90;;;;;;;13.25;83.84;102038.24;1657477;86;25861;-83
2022/10/07 08:47:17;;;;;;;11.08;4.15;;;;;;;13.38;83.47;102035.88;1607749;87;26026;-84
2022/10/07 08:50:04;;;;;;;8.45;3.67;;;;;;;13.52;83.14;102035.17;1643102;84;27480;-85
2022/10/07 08:53:00;;;;;;;9.23;3.98;;;;;;;13.65;82.83;102034.14;1687568;84;25296;-84
2022/10/07 08:55:51;;;;;;;10.85;4.20;;;;;;;13.77;82.34;102026.02;1682097;83;25843;-79
2022/10/07 08:58:54;;;;;;;7.35;3.72;;;;;;;13.88;81.73;102024.80;1650921;84;25885;-79
2022/10/07 09:02:02;;;;;;;6.53;3.33;;;;;;;13.99;81.09;102026.28;1681574;84;25810;-80
2022/10/07 09:04:43;;;;;;;9.03;2.92;;;;;;;14.08;80.66;102020.70;1688524;84;28307;-79
2022/10/07 09:07:32;;;;;;;3.02;2.30;;;;;;;14.19;79.78;102020.31;1675784;84;25829;-80
2022/10/07 09:10:16;;;;;;;5.22;2.45;;;;;;;14.28;79.68;102017.92;1679413;84;25844;-80
2022/10/07 09:13:11;;;;;;;6.40;2.52;;;;;;;14.37;78.51;102012.02;1679888;84;26538;-80
2022/10/07 09:16:03;;;;;;;8.28;2.50;;;;;;;14.46;78.46;102012.27;1681663;84;26438;-81
2022/10/07 09:18:41;;;;;;;5.65;2.08;;;;;;;14.58;77.75;102007.63;1681426;84;28271;-80
2022/10/07 09:21:18;;;;;;;6.50;2.27;;;;;;;14.67;76.86;102007.07;1681755;84;25937;-80
2022/10/07 09:23:46;;;;;;;4.08;2.15;;;;;;;14.77;76.37;102009.55;1684900;84;26582;-79
2022/10/07 09:26:17;;;;;;;4.35;1.80;;;;;;;14.88;76.18;101997.84;1673563;84;25813;-80
2022/10/07 09:28:44;;;;;;;3.27;1.25;;;;;;;14.96;75.56;102000.97;1679850;84;25821;-80
2022/10/07 09:31:14;;;;;;;3.35;1.87;;;;;;;15.04;73.92;101994.14;1686448;84;27477;-81
2022/10/07 09:33:44;;;;;;;3.10;1.42;;;;;;;15.12;73.45;101991.39;1661700;84;25919;-80
2022/10/07 09:36:17;;;;;;;5.87;1.75;;;;;;;15.18;72.71;101986.61;1649770;85;25834;-80
2022/10/07 09:38:46;;;;;;;6.17;2.17;;;;;;;15.23;72.43;101982.83;1638740;85;26591;-80
2022/10/07 09:41:34;;;;;;;7.83;1.65;;;;;;;15.32;71.93;101985.78;1634735;86;25808;-81
2022/10/07 09:44:16;;;;;;;2.42;0.85;;;;;;;15.44;70.96;101981.63;1687687;84;27535;-80
2022/10/07 09:46:58;;;;;;;4.83;1.27;;;;;;;15.52;70.37;101973.97;1680964;84;25771;-80
2022/10/07 09:49:39;;;;;;;7.05;1.30;;;;;;;15.58;69.92;101976.77;1656686;85;26302;-80
2022/10/07 09:52:24;;;;;;;6.20;1.30;;;;;;;15.66;69.51;101968.56;1683554;84;26697;-80
2022/10/07 09:54:55;;;;;;;4.25;1.37;;;;;;;15.75;68.80;101969.30;1660923;84;25852;-80
2022/10/07 09:57:32;;;;;;;5.78;1.70;;;;;;;15.77;68.57;101959.15;1679536;84;27468;-80
2022/10/07 10:00:16;;;;;;;2.62;1.52;;;;;;;15.82;68.33;101958.09;1650953;85;26261;-80
2022/10/07 10:02:53;;;;;;;4.08;1.62;;;;;;;15.84;68.25;101951.47;1685450;83;25313;-79
2022/10/07 10:05:36;;;;;;;4.97;1.55;;;;;;;15.88;67.93;101952.77;1674435;84;25968;-80
2022/10/07 10:08:25;;;;;;;4.42;1.67;;;;;;;15.92;67.59;101950.02;1680771;84;25875;-80
2022/10/07 10:11:16;;;;;;;2.47;1.25;;;;;;;15.97;67.39;101938.09;1684130;84;27490;-80
2022/10/07 10:13:43;;;;;;;8.63;1.52;;;;;;;16.03;66.40;101938.72;1692209;83;25287;-80
2022/10/07 10:16:29;;;;;;;6.95;1.72;;;;;;;16.08;66.55;101939.50;1683868;83;25805;-80
2022/10/07 10:19:01;;;;;;;3.35;1.30;;;;;;;16.13;66.14;101933.84;1675697;83;26271;-79
2022/10/07 10:21:35;;;;;;;4.60;1.42;;;;;;;16.18;65.90;101926.51;1678940;84;25938;-80
2022/10/07 10:24:13;;;;;;;4.20;1.30;;;;;;;16.27;65.27;101925.37;1690617;84;27455;-80
2022/10/07 10:26:56;;;;;;;2.77;1.10;;;;;;;16.29;65.45;101916.55;1691689;84;26127;-81
2022/10/07 10:29:50;;;;;;;2.42;1.17;;;;;;;16.33;65.08;101914.28;1650978;85;25474;-80
2022/10/07 10:32:45;;;;;;;5.90;1.40;;;;;;;16.37;64.52;101902.89;1685491;83;26010;-80
2022/10/07 10:35:27;;;;;;;4.03;1.40;;;;;;;16.43;64.28;101914.28;1653647;85;26021;-82
2022/10/07 10:38:12;;;;;;;;;;;;;;;16.47;63.64;101901.20;1659836;85;27485;-82
2022/10/07 10:40:46;;;;;;;4.65;1.20;;;;;;;16.47;62.88;101896.64;1662583;84;26068;-80
2022/10/07 10:43:31;;;;;;;2.90;0.90;;;;;;;16.49;63.07;101893.73;1618210;87;25834;-80
2022/10/07 10:46:25;;;;;;;3.33;1.40;;;;;;;16.51;62.63;101889.84;1665250;83;25921;-80
2022/10/07 10:49:05;;;;;;;3.45;1.50;;;;;;;16.54;62.46;101894.03;1686839;84;25879;-79
2022/10/07 10:51:39;;;;;;;2.00;1.10;;;;;;;16.56;62.42;101881.99;1682784;84;27476;-79
2022/10/07 10:54:35;;;;;;;2.52;1.20;;;;;;;16.62;62.97;101883.06;1675532;84;25306;-80
2022/10/07 10:57:39;;;;;;;2.20;1.20;;;;;;;16.68;62.38;101880.95;1675928;84;25768;-80
2022/10/07 11:00:20;;;;;;;3.12;1.10;;;;;;;16.73;62.09;101881.19;1687969;83;27159;-80
2022/10/07 11:03:04;;;;;;;4.97;1.60;;;;;;;16.76;61.49;101872.19;1687787;84;25833;-80
2022/10/07 11:05:35;;;;;;;7.05;1.42;;;;;;;16.80;61.43;101869.91;1682726;83;27521;-79
2022/10/07 11:08:10;;;;;;;4.53;1.30;;;;;;;16.80;61.16;101859.93;1684648;84;25727;-80
2022/10/07 11:10:44;;;;;;;3.90;1.22;;;;;;;16.83;60.77;101857.31;1681020;84;25788;-80
2022/10/07 11:13:29;;;;;;;4.65;1.45;;;;;;;16.86;59.97;101856.94;1682147;84;25791;-80
2022/10/07 11:16:11;;;;;;;4.75;1.30;;;;;;;16.87;60.99;101844.55;1678290;84;25956;-79
2022/10/07 11:19:00;;;;;;;3.52;1.50;;;;;;;16.93;60.95;101833.47;1686085;84;27615;-79
2022/10/07 11:21:44;;;;;;;3.80;1.40;;;;;;;16.98;61.13;101830.98;1682038;84;25945;-80
2022/10/07 11:24:38;;;;;;;3.60;1.40;;;;;;;17.06;60.85;101824.59;1676862;84;25872;-79
2022/10/07 11:27:18;;;;;;;3.17;1.42;;;;;;;17.14;60.74;101821.72;1676082;84;26607;-79
2022/10/07 11:30:06;;;;;;;3.12;1.42;;;;;;;17.16;60.14;101812.87;1671388;84;25939;-79
2022/10/07 11:32:53;;;;;;;6.28;1.40;;;;;;;17.17;59.99;101816.73;1676935;84;27459;-79
2022/10/07 11:35:33;;;;;;;2.62;1.45;;;;;;;17.19;60.26;101806.56;1677567;84;26505;-79
2022/10/07 11:38:17;;;;;;;6.22;1.90;;;;;;;17.23;60.29;101797.51;1674093;84;25852;-80
2022/10/07 11:41:17;;;;;;;5.17;1.50;;;;;;;17.26;60.03;101794.38;1684787;84;26318;-80
2022/10/07 11:43:48;;;;;;;5.45;2.00;;;;;;;17.32;60.43;101784.12;1679760;84;25941;-81
2022/10/07 11:46:31;;;;;;;4.10;1.77;;;;;;;17.36;59.42;101784.02;1679887;84;27481;-79
2022/10/07 11:49:24;;;;;;;3.95;2.00;;;;;;;17.37;59.26;101778.91;1687124;84;26037;-81
2022/10/07 11:52:01;;;;;;;3.40;1.65;;;;;;;17.38;58.89;101776.53;1680908;84;25325;-82
2022/10/07 11:54:40;;;;;;;7.00;1.90;;;;;;;17.39;59.06;101762.78;1679158;84;26712;-82
2022/10/07 11:57:18;;;;;;;4.55;1.70;;;;;;;17.43;58.44;101755.06;1675602;84;26434;-81
2022/10/07 11:59:59;;;;;;;6.65;1.57;;;;;;;17.46;58.34;101747.91;1675752;84;27480;-80
2022/10/07 12:02:36;;;;;;;5.03;1.42;;;;;;;17.49;57.69;101747.51;1681366;84;35577;-82